createdAt,value
2018-10-03T00:01:33.439Z,16.04
2018-10-03T00:04:02.631Z,16.21
2018-10-03T00:06:31.922Z,16.31
2018-10-03T00:09:01.180Z,16.39
2018-10-03T00:11:30.593Z,16.45
2018-10-03T00:13:59.835Z,16.46
2018-10-03T00:16:28.968Z,16.48
2018-10-03T00:18:58.084Z,16.41
2018-10-03T00:21:27.498Z,16.34
2018-10-03T00:23:56.870Z,16.29
2018-10-03T00:26:26.231Z,16.24
2018-10-03T00:28:55.680Z,16.15
2018-10-03T00:31:24.627Z,16.15
2018-10-03T00:33:54.028Z,16.18
2018-10-03T00:36:23.408Z,16.14
2018-10-03T00:38:52.727Z,16.15
2018-10-03T00:41:22.071Z,16.21
2018-10-03T00:43:51.363Z,16.21
2018-10-03T00:46:20.640Z,16.24
2018-10-03T00:48:49.894Z,16.21
2018-10-03T00:51:19.062Z,16.29
2018-10-03T00:53:48.322Z,16.32
2018-10-03T00:56:17.263Z,16.32
2018-10-03T00:58:46.768Z,16.39
2018-10-03T01:01:15.699Z,16.52
2018-10-03T01:03:45.070Z,16.50
2018-10-03T01:06:14.335Z,16.45
2018-10-03T01:08:43.555Z,16.46
2018-10-03T01:11:12.479Z,16.49
2018-10-03T01:13:41.944Z,16.48
2018-10-03T01:16:11.250Z,16.47
2018-10-03T01:18:40.406Z,16.43
2018-10-03T01:21:09.789Z,16.41
2018-10-03T01:23:39.359Z,16.41
2018-10-03T01:26:08.650Z,16.38
2018-10-03T01:28:37.883Z,16.39
2018-10-03T01:31:06.947Z,16.36
2018-10-03T01:33:35.935Z,16.53
2018-10-03T01:36:04.983Z,16.50
2018-10-03T01:38:34.330Z,16.56
2018-10-03T01:41:03.711Z,16.60
2018-10-03T01:43:33.068Z,16.62
2018-10-03T01:46:02.335Z,16.57
2018-10-03T01:48:31.303Z,16.55
2018-10-03T01:51:00.565Z,16.44
2018-10-03T01:53:29.547Z,16.33
2018-10-03T01:55:58.470Z,16.20
2018-10-03T01:58:27.676Z,16.17
2018-10-03T02:00:56.547Z,16.14
2018-10-03T02:03:25.736Z,16.12
2018-10-03T02:05:54.982Z,16.20
2018-10-03T02:08:24.476Z,16.25
2018-10-03T02:10:53.889Z,16.30
2018-10-03T02:13:23.353Z,16.29
2018-10-03T02:15:52.533Z,16.30
2018-10-03T02:18:21.870Z,16.33
2018-10-03T02:20:50.971Z,16.33
2018-10-03T02:23:20.240Z,16.37
2018-10-03T02:25:49.275Z,16.38
2018-10-03T02:28:18.214Z,16.31
2018-10-03T02:30:47.507Z,16.27
2018-10-03T02:33:16.863Z,16.23
2018-10-03T02:35:46.164Z,16.17
2018-10-03T02:38:15.159Z,16.14
2018-10-03T02:40:44.449Z,16.09
2018-10-03T02:43:13.701Z,16.05
2018-10-03T02:45:42.920Z,16.03
2018-10-03T02:48:11.905Z,15.97
2018-10-03T02:50:41.084Z,15.95
2018-10-03T02:53:10.075Z,15.94
2018-10-03T02:55:39.188Z,15.92
2018-10-03T02:58:08.366Z,15.90
2018-10-03T03:00:37.601Z,15.86
2018-10-03T03:03:06.918Z,15.82
2018-10-03T03:05:36.127Z,15.78
2018-10-03T03:08:05.348Z,15.76
2018-10-03T03:10:34.593Z,15.72
2018-10-03T03:13:03.754Z,15.66
2018-10-03T03:15:33.048Z,15.65
2018-10-03T03:18:02.441Z,15.65
2018-10-03T03:20:31.401Z,15.60
2018-10-03T03:23:00.646Z,15.55
2018-10-03T03:25:29.778Z,15.49
2018-10-03T03:27:58.728Z,15.46
2018-10-03T03:30:27.989Z,15.43
2018-10-03T03:32:56.938Z,15.41
2018-10-03T03:35:26.170Z,15.43
2018-10-03T03:37:55.131Z,15.42
2018-10-03T03:40:24.060Z,15.41
2018-10-03T03:42:53.255Z,15.35
2018-10-03T03:45:22.596Z,15.35
2018-10-03T03:47:51.731Z,15.33
2018-10-03T03:50:20.808Z,15.31
2018-10-03T03:52:49.676Z,15.31
2018-10-03T03:55:18.945Z,15.30
2018-10-03T03:57:48.230Z,15.31
2018-10-03T04:00:17.583Z,15.31
2018-10-03T04:02:46.873Z,15.30
2018-10-03T04:05:16.076Z,15.29
2018-10-03T04:07:45.370Z,15.25
2018-10-03T04:10:14.753Z,15.22
2018-10-03T04:12:43.806Z,15.19
2018-10-03T04:15:12.887Z,15.17
2018-10-03T04:17:42.175Z,15.14
2018-10-03T04:20:11.455Z,15.17
2018-10-03T04:22:40.818Z,15.20
2018-10-03T04:25:10.160Z,15.20
2018-10-03T04:27:39.407Z,15.19
2018-10-03T04:30:08.673Z,15.15
2018-10-03T04:32:37.544Z,15.13
2018-10-03T04:35:06.763Z,15.15
2018-10-03T04:37:36.159Z,15.17
2018-10-03T04:40:05.539Z,15.21
2018-10-03T04:42:34.893Z,15.23
2018-10-03T04:45:04.183Z,15.21
2018-10-03T04:47:33.343Z,15.24
2018-10-03T04:50:02.387Z,15.25
2018-10-03T04:52:31.435Z,15.29
2018-10-03T04:55:00.570Z,15.32
2018-10-03T04:57:29.703Z,15.37
2018-10-03T04:59:58.903Z,15.41
2018-10-03T05:02:28.149Z,15.46
2018-10-03T05:04:57.551Z,15.42
2018-10-03T05:07:26.716Z,15.45
2018-10-03T05:09:55.835Z,15.42
2018-10-03T05:12:25.075Z,15.37
2018-10-03T05:14:54.139Z,15.37
2018-10-03T05:17:23.442Z,15.36
2018-10-03T05:19:52.589Z,15.39
2018-10-03T05:22:21.787Z,15.41
2018-10-03T05:24:51.032Z,15.41
2018-10-03T05:27:20.284Z,15.43
2018-10-03T05:29:49.579Z,15.41
2018-10-03T05:32:18.619Z,15.40
2018-10-03T05:34:47.816Z,15.43
2018-10-03T05:37:17.119Z,15.48
2018-10-03T05:39:46.302Z,15.57
2018-10-03T05:42:15.820Z,15.56
2018-10-03T05:44:45.024Z,15.57
2018-10-03T05:47:14.074Z,15.60
2018-10-03T05:49:43.241Z,15.69
2018-10-03T05:52:12.531Z,15.73
2018-10-03T05:54:41.786Z,15.72
2018-10-03T05:57:10.955Z,15.79
2018-10-03T05:59:40.202Z,15.81
2018-10-03T06:02:09.559Z,15.82
2018-10-03T06:04:38.525Z,15.86
2018-10-03T06:07:07.386Z,15.87
2018-10-03T06:09:36.427Z,15.89
2018-10-03T06:12:05.794Z,15.94
2018-10-03T06:14:34.759Z,15.96
2018-10-03T06:17:03.973Z,15.99
2018-10-03T06:19:33.355Z,16.03
2018-10-03T06:22:02.436Z,16.05
2018-10-03T06:24:31.751Z,16.14
2018-10-03T06:27:00.946Z,16.14
2018-10-03T06:29:30.268Z,16.14
2018-10-03T06:31:59.558Z,16.15
2018-10-03T06:34:29.062Z,16.16
2018-10-03T06:36:58.363Z,16.23
2018-10-03T06:39:27.809Z,16.31
2018-10-03T06:41:56.962Z,16.39
2018-10-03T06:44:26.306Z,16.49
2018-10-03T06:46:55.520Z,16.62
2018-10-03T06:49:24.661Z,16.70
2018-10-03T06:51:53.832Z,16.77
2018-10-03T06:54:22.819Z,16.83
2018-10-03T06:56:51.771Z,16.88
2018-10-03T06:59:20.930Z,16.99
2018-10-03T07:01:50.387Z,17.05
2018-10-03T07:04:19.518Z,17.11
2018-10-03T07:06:48.539Z,17.16
2018-10-03T07:09:17.488Z,17.22
2018-10-03T07:11:46.616Z,17.24
2018-10-03T07:14:15.952Z,17.36
2018-10-03T07:16:45.295Z,17.48
2018-10-03T07:19:14.544Z,17.57
2018-10-03T07:21:43.547Z,17.63
2018-10-03T07:24:12.418Z,17.65
2018-10-03T07:26:41.740Z,17.64
2018-10-03T07:29:10.792Z,17.72
2018-10-03T07:31:40.044Z,17.77
2018-10-03T07:34:09.172Z,17.80
2018-10-03T07:36:38.062Z,17.78
2018-10-03T07:39:09.374Z,17.85
2018-10-03T07:41:38.758Z,17.94
2018-10-03T07:44:07.976Z,18.07
2018-10-03T07:46:36.792Z,18.08
2018-10-03T07:49:05.995Z,18.09
2018-10-03T07:51:35.335Z,18.14
2018-10-03T07:54:04.656Z,18.24
2018-10-03T07:56:33.900Z,18.40
2018-10-03T07:59:03.402Z,18.54
2018-10-03T08:01:32.263Z,18.64
2018-10-03T08:04:01.280Z,18.73
2018-10-03T08:06:30.636Z,18.76
2018-10-03T08:08:59.788Z,18.80
2018-10-03T08:11:29.168Z,18.86
2018-10-03T08:13:58.224Z,18.90
2018-10-03T08:16:27.411Z,18.97
2018-10-03T08:18:56.403Z,19.02
2018-10-03T08:21:25.533Z,19.12
2018-10-03T08:23:54.959Z,19.13
2018-10-03T08:26:24.352Z,19.18
2018-10-03T08:28:53.473Z,19.35
2018-10-03T08:31:22.488Z,19.41
2018-10-03T08:33:51.787Z,19.41
2018-10-03T08:36:21.130Z,19.41
2018-10-03T08:38:50.249Z,19.45
2018-10-03T08:41:19.546Z,19.58
2018-10-03T08:43:48.843Z,19.63
2018-10-03T08:46:18.329Z,19.67
2018-10-03T08:48:47.571Z,19.71
2018-10-03T08:51:16.807Z,19.67
2018-10-03T08:53:46.140Z,19.72
2018-10-03T08:56:15.583Z,19.96
2018-10-03T08:58:44.771Z,20.11
2018-10-03T09:01:14.129Z,20.34
2018-10-03T09:03:43.475Z,20.32
2018-10-03T09:06:12.831Z,20.39
2018-10-03T09:08:41.971Z,20.44
2018-10-03T09:11:11.334Z,20.56
2018-10-03T09:13:40.826Z,20.73
2018-10-03T09:16:10.336Z,20.76
2018-10-03T09:18:39.212Z,20.82
2018-10-03T09:21:08.648Z,21.02
2018-10-03T09:23:38.111Z,21.21
2018-10-03T09:26:07.498Z,21.50
2018-10-03T09:28:36.739Z,21.66
2018-10-03T09:31:05.980Z,21.92
2018-10-03T09:33:34.924Z,21.94
2018-10-03T09:36:04.153Z,22.31
2018-10-03T09:38:33.372Z,22.67
2018-10-03T09:41:02.289Z,22.89
2018-10-03T09:43:31.564Z,23.02
2018-10-03T09:46:00.861Z,22.90
2018-10-03T09:48:30.071Z,22.63
2018-10-03T09:50:59.156Z,22.63
2018-10-03T09:53:28.306Z,22.86
2018-10-03T09:55:57.543Z,22.79
2018-10-03T09:58:26.627Z,22.70
2018-10-03T10:01:01.085Z,22.61
2018-10-03T10:03:30.308Z,22.77
2018-10-03T10:05:59.606Z,23.41
2018-10-03T10:08:28.847Z,24.17
2018-10-03T10:10:58.270Z,24.52
2018-10-03T10:13:27.104Z,25.03
2018-10-03T10:15:56.161Z,25.88
2018-10-03T10:18:25.126Z,26.47
2018-10-03T10:20:54.414Z,27.77
2018-10-03T10:23:23.627Z,29.11
2018-10-03T10:25:52.919Z,30.55
2018-10-03T10:28:21.907Z,30.99
2018-10-03T10:30:50.725Z,31.76
2018-10-03T10:33:19.767Z,32.58
2018-10-03T10:35:49.045Z,32.60
2018-10-03T10:38:18.139Z,32.24
2018-10-03T10:40:47.524Z,32.78
2018-10-03T10:43:17.207Z,33.51
2018-10-03T10:45:46.405Z,33.53
2018-10-03T10:48:15.721Z,34.54
2018-10-03T10:50:44.672Z,35.10
2018-10-03T10:53:14.129Z,35.01
2018-10-03T10:55:43.446Z,33.27
2018-10-03T10:58:12.936Z,33.42
2018-10-03T11:00:41.944Z,33.16
2018-10-03T11:03:10.995Z,33.98
2018-10-03T11:05:40.226Z,34.43
2018-10-03T11:08:09.622Z,34.77
2018-10-03T11:10:38.515Z,34.28
2018-10-03T11:13:07.771Z,34.27
2018-10-03T11:15:36.791Z,34.02
2018-10-03T11:18:05.815Z,34.74
2018-10-03T11:20:34.731Z,35.20
2018-10-03T11:23:03.987Z,35.31
2018-10-03T11:25:32.878Z,36.26
2018-10-03T11:28:02.007Z,36.97
2018-10-03T11:30:30.996Z,37.22
2018-10-03T11:32:59.999Z,37.23
2018-10-03T11:35:28.960Z,37.05
2018-10-03T11:37:58.657Z,37.19
2018-10-03T11:40:27.676Z,37.81
2018-10-03T11:42:56.487Z,38.78
2018-10-03T11:45:25.422Z,39.03
2018-10-03T11:47:54.929Z,39.36
2018-10-03T11:50:23.906Z,39.76
2018-10-03T11:52:52.860Z,39.19
2018-10-03T11:55:21.847Z,39.57
2018-10-03T11:57:50.835Z,40.16
2018-10-03T12:00:19.776Z,39.70
2018-10-03T12:02:48.767Z,39.03
2018-10-03T12:05:17.803Z,37.03
2018-10-03T12:07:46.863Z,35.36
2018-10-03T12:10:15.754Z,33.68
2018-10-03T12:12:45.043Z,32.21
2018-10-03T12:15:14.035Z,30.92
2018-10-03T12:17:42.939Z,30.25
2018-10-03T12:20:11.875Z,30.20
2018-10-03T12:22:40.820Z,30.05
2018-10-03T12:25:24.250Z,29.54
2018-10-03T12:27:53.455Z,28.88
2018-10-03T12:30:22.536Z,28.41
2018-10-03T12:32:51.596Z,28.33
2018-10-03T12:35:25.666Z,28.79
2018-10-03T12:37:54.669Z,29.77
2018-10-03T12:40:23.788Z,30.05
2018-10-03T12:42:52.795Z,29.70
2018-10-03T12:45:21.810Z,29.30
2018-10-03T12:47:50.864Z,30.30
2018-10-03T12:50:19.805Z,30.86
2018-10-03T12:52:49.003Z,31.18
2018-10-03T12:55:18.504Z,31.49
2018-10-03T12:57:47.967Z,31.45
2018-10-03T13:00:16.963Z,31.90
2018-10-03T13:02:45.839Z,32.59
2018-10-03T13:05:14.806Z,32.37
2018-10-03T13:07:44.011Z,32.29
2018-10-03T13:10:12.884Z,31.91
2018-10-03T13:12:41.805Z,31.06
2018-10-03T13:15:10.853Z,30.27
2018-10-03T13:17:39.843Z,29.73
2018-10-03T13:20:09.039Z,28.98
2018-10-03T13:22:38.439Z,28.21
2018-10-03T13:25:07.367Z,27.46
2018-10-03T13:27:36.415Z,26.90
2018-10-03T13:30:05.569Z,26.69
2018-10-03T13:32:34.591Z,26.54
2018-10-03T13:35:03.616Z,26.39
2018-10-03T13:37:32.602Z,26.26
2018-10-03T13:40:01.608Z,26.13
2018-10-03T13:42:30.995Z,26.08
2018-10-03T13:44:59.875Z,25.92
2018-10-03T13:47:28.836Z,25.84
2018-10-03T13:49:57.902Z,25.81
2018-10-03T13:52:26.959Z,25.73
2018-10-03T13:54:55.895Z,25.75
2018-10-03T13:57:24.836Z,25.78
2018-10-03T13:59:53.779Z,25.71
2018-10-03T14:02:22.723Z,25.43
2018-10-03T14:04:51.559Z,25.30
2018-10-03T14:07:20.583Z,25.24
2018-10-03T14:09:49.550Z,25.18
2018-10-03T14:12:18.591Z,25.17
2018-10-03T14:14:47.473Z,25.22
2018-10-03T14:17:16.763Z,25.04
2018-10-03T14:19:45.763Z,25.06
2018-10-03T14:22:14.709Z,25.05
2018-10-03T14:24:43.619Z,25.03
2018-10-03T14:27:12.543Z,25.17
2018-10-03T14:29:41.508Z,25.05
2018-10-03T14:32:10.445Z,25.07
2018-10-03T14:34:39.475Z,25.04
2018-10-03T14:37:08.715Z,24.92
2018-10-03T14:39:37.714Z,24.64
2018-10-03T14:42:06.931Z,24.43
2018-10-03T14:44:35.922Z,24.32
2018-10-03T14:47:05.185Z,24.11
2018-10-03T14:49:34.697Z,23.94
2018-10-03T14:52:03.718Z,23.74
2018-10-03T14:54:32.687Z,23.56
2018-10-03T14:57:01.912Z,23.38
2018-10-03T14:59:30.920Z,23.16
2018-10-03T15:02:00.122Z,22.98
2018-10-03T15:04:29.302Z,22.86
2018-10-03T15:06:58.667Z,22.76
2018-10-03T15:09:28.013Z,22.69
2018-10-03T15:11:57.151Z,22.61
2018-10-03T15:14:26.620Z,22.59
2018-10-03T15:19:23.875Z,22.53
2018-10-03T15:21:52.813Z,22.50
2018-10-03T15:24:21.810Z,22.50
2018-10-03T15:26:50.835Z,22.47
2018-10-03T15:29:20.188Z,22.36
2018-10-03T15:31:49.658Z,22.22
2018-10-03T15:34:18.855Z,22.15
2018-10-03T15:36:47.823Z,22.07
2018-10-03T15:39:16.827Z,21.99
2018-10-03T15:41:46.101Z,21.88
2018-10-03T15:44:15.372Z,21.76
2018-10-03T15:46:44.701Z,21.72
2018-10-03T15:49:13.935Z,21.69
2018-10-03T15:51:42.928Z,21.59
2018-10-03T15:54:11.849Z,21.48
2018-10-03T15:56:41.015Z,21.37
2018-10-03T15:59:10.216Z,21.31
2018-10-03T16:01:39.627Z,21.18
2018-10-03T16:04:08.852Z,21.07
2018-10-03T16:06:38.080Z,20.99
2018-10-03T16:09:08.615Z,20.90
2018-10-03T16:11:37.778Z,20.77
2018-10-03T16:14:07.049Z,20.71
2018-10-03T16:16:36.325Z,20.65
2018-10-03T16:19:05.692Z,20.58
2018-10-03T16:21:34.918Z,20.50
2018-10-03T16:24:04.296Z,20.45
2018-10-03T16:26:33.286Z,20.38
2018-10-03T16:29:02.779Z,20.34
2018-10-03T16:31:32.312Z,20.31
2018-10-03T16:34:01.788Z,20.26
2018-10-03T16:36:31.140Z,20.21
2018-10-03T16:39:00.460Z,20.17
2018-10-03T16:41:29.420Z,20.17
2018-10-03T16:43:58.539Z,20.15
2018-10-03T16:46:27.672Z,20.15
2018-10-03T16:48:57.136Z,20.09
2018-10-03T16:51:26.862Z,20.04
2018-10-03T16:53:56.124Z,20.06
2018-10-03T16:56:25.503Z,20.05
2018-10-03T16:58:54.735Z,20.05
2018-10-03T17:01:24.199Z,20.04
2018-10-03T17:03:53.328Z,20.02
2018-10-03T17:06:22.659Z,20.03
2018-10-03T17:08:52.917Z,19.98
2018-10-03T17:11:22.387Z,19.98
2018-10-03T17:14:02.446Z,19.99
2018-10-03T17:16:31.955Z,19.93
2018-10-03T17:19:01.098Z,19.88
2018-10-03T17:21:30.478Z,19.83
2018-10-03T17:23:59.848Z,19.78
2018-10-03T17:26:28.951Z,19.72
2018-10-03T17:28:58.399Z,19.81
2018-10-03T17:31:27.647Z,19.73
2018-10-03T17:33:57.053Z,19.64
2018-10-03T17:36:26.348Z,19.57
2018-10-03T17:38:55.535Z,19.62
2018-10-03T17:41:25.583Z,19.63
2018-10-03T17:43:55.136Z,19.63
2018-10-03T17:46:24.571Z,19.61
2018-10-03T17:48:54.218Z,19.61
2018-10-03T17:51:23.441Z,19.55
2018-10-03T17:53:52.358Z,19.41
2018-10-03T17:56:21.811Z,19.44
2018-10-03T17:58:51.287Z,19.54
2018-10-03T18:01:20.728Z,19.52
2018-10-03T18:03:49.859Z,19.57
2018-10-03T18:06:19.248Z,19.67
2018-10-03T18:08:48.773Z,19.72
2018-10-03T18:11:19.157Z,19.82
2018-10-03T18:13:48.719Z,19.90
2018-10-03T18:16:18.004Z,19.99
2018-10-03T18:18:47.452Z,20.06
2018-10-03T18:21:17.305Z,20.09
2018-10-03T18:23:47.048Z,20.11
2018-10-03T18:26:17.703Z,20.15
2018-10-03T18:28:46.957Z,20.15
2018-10-03T18:31:16.846Z,20.13
2018-10-03T18:33:46.546Z,20.13
2018-10-03T18:36:16.203Z,20.15
2018-10-03T18:38:48.251Z,20.13
2018-10-03T18:41:17.861Z,20.16
2018-10-03T18:43:47.488Z,20.19
2018-10-03T18:46:16.798Z,20.20
2018-10-03T18:48:46.677Z,20.14
2018-10-03T18:51:16.195Z,20.15
2018-10-03T18:53:46.283Z,20.12
2018-10-03T18:56:15.542Z,20.11
2018-10-03T18:58:44.804Z,20.15
2018-10-03T19:01:14.663Z,20.14
2018-10-03T19:03:43.764Z,20.13
2018-10-03T19:06:13.229Z,20.14
2018-10-03T19:08:42.143Z,20.12
2018-10-03T19:11:11.123Z,20.09
2018-10-03T19:13:40.328Z,20.03
2018-10-03T19:16:09.708Z,20.02
2018-10-03T19:18:38.891Z,19.97
2018-10-03T19:21:08.168Z,19.94
2018-10-03T19:23:37.100Z,19.89
2018-10-03T19:26:06.317Z,19.83
2018-10-03T19:28:35.451Z,19.79
2018-10-03T19:31:04.700Z,19.76
2018-10-03T19:33:34.089Z,19.73
2018-10-03T19:36:03.370Z,19.71
2018-10-03T19:38:32.739Z,19.67
2018-10-03T19:41:01.690Z,19.64
2018-10-03T19:43:31.134Z,19.60
2018-10-03T19:46:00.491Z,19.56
2018-10-03T19:48:29.618Z,19.55
2018-10-03T19:50:58.519Z,19.50
2018-10-03T19:53:31.987Z,19.44
2018-10-03T19:56:01.918Z,19.38
2018-10-03T19:58:30.972Z,19.30
2018-10-03T20:00:59.960Z,19.25
2018-10-03T20:03:29.052Z,19.22
2018-10-03T20:05:58.275Z,19.17
2018-10-03T20:08:27.267Z,19.14
2018-10-03T20:10:56.463Z,19.11
2018-10-03T20:13:25.435Z,19.08
2018-10-03T20:15:54.705Z,19.06
2018-10-03T20:18:24.091Z,19.03
2018-10-03T20:20:53.526Z,18.96
2018-10-03T20:23:22.923Z,18.93
2018-10-03T20:25:52.209Z,18.87
2018-10-03T20:28:21.560Z,18.80
2018-10-03T20:30:50.867Z,18.78
2018-10-03T20:33:19.768Z,18.76
2018-10-03T20:35:49.151Z,18.70
2018-10-03T20:38:18.004Z,18.70
2018-10-03T20:40:47.523Z,18.67
2018-10-03T20:43:16.739Z,18.65
2018-10-03T20:45:45.955Z,18.61
2018-10-03T20:48:15.282Z,18.59
2018-10-03T20:50:44.340Z,18.58
2018-10-03T20:53:13.619Z,18.56
2018-10-03T20:55:42.858Z,18.55
2018-10-03T20:58:11.759Z,18.53
2018-10-03T21:00:41.030Z,18.61
2018-10-03T21:03:10.165Z,18.66
2018-10-03T21:05:39.425Z,18.70
2018-10-03T21:08:08.804Z,18.73
2018-10-03T21:10:37.950Z,18.76
2018-10-03T21:13:07.307Z,18.81
2018-10-03T21:15:36.482Z,18.83
2018-10-03T21:18:05.906Z,18.85
2018-10-03T21:20:34.983Z,18.82
2018-10-03T21:23:03.844Z,18.80
2018-10-03T21:25:33.336Z,18.80
2018-10-03T21:28:02.134Z,18.77
2018-10-03T21:30:31.429Z,18.78
2018-10-03T21:33:00.590Z,18.80
2018-10-03T21:35:29.811Z,18.82
2018-10-03T21:37:58.967Z,18.78
2018-10-03T21:40:28.323Z,18.74
2018-10-03T21:42:57.195Z,18.77
2018-10-03T21:45:26.498Z,18.80
2018-10-03T21:47:55.699Z,18.74
2018-10-03T21:50:24.779Z,18.63
2018-10-03T21:52:54.075Z,18.53
2018-10-03T21:55:23.095Z,18.46
2018-10-03T21:57:52.344Z,18.40
2018-10-03T22:00:21.575Z,18.31
2018-10-03T22:02:50.735Z,18.20
2018-10-03T22:05:19.656Z,18.08
2018-10-03T22:07:48.860Z,17.91
2018-10-03T22:10:18.121Z,17.81
2018-10-03T22:12:47.319Z,17.69
2018-10-03T22:15:16.387Z,17.60
2018-10-03T22:17:45.643Z,17.48
2018-10-03T22:20:14.998Z,17.32
2018-10-03T22:22:44.211Z,17.20
2018-10-03T22:25:13.397Z,17.17
2018-10-03T22:27:42.531Z,17.08
2018-10-03T22:30:11.795Z,16.97
2018-10-03T22:32:40.677Z,16.86
2018-10-03T22:35:09.830Z,16.83
2018-10-03T22:37:39.071Z,16.77
2018-10-03T22:40:08.072Z,16.67
2018-10-03T22:42:37.199Z,16.61
2018-10-03T22:45:06.315Z,16.58
2018-10-03T22:47:35.302Z,16.57
2018-10-03T22:50:04.546Z,16.51
2018-10-03T22:52:33.803Z,16.49
2018-10-03T22:55:03.052Z,16.47
2018-10-03T22:57:31.907Z,16.41
2018-10-03T23:00:01.167Z,16.41
2018-10-03T23:02:30.688Z,16.44
2018-10-03T23:04:59.927Z,16.42
2018-10-03T23:07:29.271Z,16.41
2018-10-03T23:09:58.136Z,16.43
2018-10-03T23:12:27.476Z,16.46
2018-10-03T23:14:56.663Z,16.46
2018-10-03T23:17:25.707Z,16.49
2018-10-03T23:19:54.955Z,16.50
2018-10-03T23:22:24.303Z,16.56
2018-10-03T23:24:53.568Z,16.64
2018-10-03T23:27:22.661Z,16.64
2018-10-03T23:29:51.806Z,16.63
2018-10-03T23:32:21.104Z,16.59
2018-10-03T23:34:50.435Z,16.59
2018-10-03T23:37:19.735Z,16.59
2018-10-03T23:39:48.953Z,16.55
2018-10-03T23:42:18.198Z,16.54
2018-10-03T23:44:47.647Z,16.55
2018-10-03T23:47:16.948Z,16.56
2018-10-03T23:49:45.756Z,16.53
2018-10-03T23:52:14.600Z,16.48
2018-10-03T23:54:43.803Z,16.48
2018-10-03T23:57:13.120Z,16.42
2018-10-03T23:59:42.168Z,16.42
